createdAt,value
2023-03-04T00:01:13.637Z,99211.19
2023-03-04T00:06:16.817Z,99207.47
2023-03-04T00:11:20.871Z,99212.50
2023-03-04T00:16:23.805Z,99204.44
2023-03-04T00:21:26.625Z,99200.72
2023-03-04T00:26:30.757Z,99199.75
2023-03-04T00:31:33.604Z,99196.78
2023-03-04T00:36:36.414Z,99196.63
2023-03-04T00:41:40.706Z,99204.31
2023-03-04T00:46:44.185Z,99197.16
2023-03-04T00:51:46.998Z,99196.97
2023-03-04T00:56:51.360Z,99190.69
2023-03-04T01:01:54.142Z,99182.63
2023-03-04T01:06:56.911Z,99178.94
2023-03-04T01:12:00.992Z,99177.91
2023-03-04T01:17:04.169Z,99177.72
2023-03-04T01:22:07.090Z,99166.22
2023-03-04T01:27:11.288Z,99156.50
2023-03-04T01:32:14.140Z,99155.47
2023-03-04T01:37:19.085Z,99136.06
2023-03-04T01:42:35.679Z,99137.72
2023-03-04T01:47:38.501Z,99127.91
2023-03-04T01:52:43.869Z,99124.34
2023-03-04T01:57:49.878Z,99128.56
2023-03-04T02:02:56.915Z,99122.25
2023-03-04T02:08:01.513Z,99118.84
2023-03-04T02:13:06.905Z,99113.41
2023-03-04T02:18:16.813Z,99114.16
2023-03-04T02:23:27.122Z,99102.72
2023-03-04T02:28:31.610Z,99102.50
2023-03-04T02:33:34.528Z,99110.38
2023-03-04T02:38:38.741Z,99103.28
2023-03-04T02:43:44.448Z,99098.03
2023-03-04T02:48:47.407Z,99090.16
2023-03-04T02:53:50.244Z,99089.19
2023-03-04T02:58:54.508Z,99089.06
2023-03-04T03:03:57.786Z,99087.28
2023-03-04T03:09:01.058Z,99081.13
2023-03-04T03:14:08.902Z,99083.63
2023-03-04T03:19:11.684Z,99081.91
2023-03-04T03:24:15.618Z,99077.47
2023-03-04T03:29:19.956Z,99066.75
2023-03-04T03:34:22.727Z,99068.47
2023-03-04T03:39:26.348Z,99072.59
2023-03-04T03:44:30.693Z,99079.50
2023-03-04T03:49:33.631Z,99071.50
2023-03-04T03:54:36.650Z,99072.25
2023-03-04T03:59:40.876Z,99068.75
2023-03-04T04:04:43.731Z,99074.66
2023-03-04T04:09:46.661Z,99065.00
2023-03-04T04:14:50.835Z,99067.38
2023-03-04T04:19:53.668Z,99055.03
2023-03-04T04:24:56.446Z,99055.84
2023-03-04T04:30:00.664Z,99060.09
2023-03-04T04:35:03.479Z,99050.38
2023-03-04T04:40:07.446Z,99046.78
2023-03-04T04:45:12.438Z,99044.97
2023-03-04T04:50:15.140Z,99046.53
2023-03-04T04:55:18.073Z,99043.91
2023-03-04T05:00:23.033Z,99042.88
2023-03-04T05:05:26.697Z,99045.44
2023-03-04T05:10:29.518Z,99043.66
2023-03-04T05:15:33.859Z,99043.63
2023-03-04T05:20:37.224Z,99050.59
2023-03-04T05:25:39.980Z,99042.56
2023-03-04T05:30:45.963Z,99042.63
2023-03-04T05:35:50.904Z,99038.06
2023-03-04T05:40:58.689Z,99043.31
2023-03-04T05:46:03.868Z,99041.47
2023-03-04T05:51:07.182Z,99046.59
2023-03-04T05:56:11.023Z,99043.97
2023-03-04T06:01:15.836Z,99052.66
2023-03-04T06:06:19.328Z,99046.47
2023-03-04T06:11:22.133Z,99061.16
2023-03-04T06:16:26.529Z,99065.41
2023-03-04T06:21:29.457Z,99068.78
2023-03-04T06:26:32.517Z,99073.91
2023-03-04T06:31:36.940Z,99077.19
2023-03-04T06:36:39.782Z,99073.50
2023-03-04T06:41:42.705Z,99086.53
2023-03-04T06:46:46.990Z,99095.06
2023-03-04T06:51:49.832Z,99094.91
2023-03-04T06:56:52.528Z,99085.03
2023-03-04T07:01:56.965Z,99091.88
2023-03-04T07:06:59.828Z,99097.75
2023-03-04T07:12:02.610Z,99099.13
2023-03-04T07:17:06.706Z,99103.34
2023-03-04T07:22:09.504Z,99103.91
2023-03-04T07:27:12.461Z,99115.91
2023-03-04T07:32:19.162Z,99112.94
2023-03-04T07:37:22.577Z,99122.94
2023-03-04T07:42:25.348Z,99116.28
2023-03-04T07:47:36.760Z,99121.47
2023-03-04T07:52:40.053Z,99120.13
2023-03-04T07:57:43.677Z,99124.28
2023-03-04T08:02:47.999Z,99123.06
2023-03-04T08:07:50.970Z,99121.31
2023-03-04T08:12:53.828Z,99133.28
2023-03-04T08:17:57.956Z,99135.44
2023-03-04T08:23:01.036Z,99129.00
2023-03-04T08:28:04.204Z,99132.06
2023-03-04T08:33:09.313Z,99132.47
2023-03-04T08:38:12.018Z,99135.09
2023-03-04T08:43:14.713Z,99129.53
2023-03-04T08:48:19.357Z,99134.31
2023-03-04T08:53:23.094Z,99131.72
2023-03-04T08:58:25.952Z,99134.84
2023-03-04T09:03:30.251Z,99134.16
2023-03-04T09:08:34.204Z,99131.63
2023-03-04T09:13:37.790Z,99131.69
2023-03-04T09:18:43.259Z,99131.53
2023-03-04T09:23:46.119Z,99143.78
2023-03-04T09:28:51.736Z,99139.69
2023-03-04T09:33:58.866Z,99145.75
2023-03-04T09:39:02.258Z,99140.94
2023-03-04T09:44:11.642Z,99145.91
2023-03-04T09:49:18.078Z,99145.38
2023-03-04T09:54:31.175Z,99135.06
2023-03-04T09:59:43.038Z,99137.53
2023-03-04T10:04:51.313Z,99136.69
2023-03-04T10:09:59.888Z,99126.47
2023-03-04T10:15:07.041Z,99126.91
2023-03-04T10:20:16.388Z,99117.81
2023-03-04T10:25:22.191Z,99120.81
2023-03-04T10:30:38.083Z,99115.50
2023-03-04T10:35:46.360Z,99112.41
2023-03-04T10:40:49.821Z,99110.38
2023-03-04T10:45:56.405Z,99100.28
2023-03-04T10:51:14.478Z,99109.13
2023-03-04T10:56:39.116Z,99100.75
2023-03-04T11:01:42.646Z,99099.38
2023-03-04T11:06:46.949Z,99100.09
2023-03-04T11:11:52.130Z,99107.50
2023-03-04T11:16:57.196Z,99086.09
2023-03-04T11:22:02.646Z,99086.56
2023-03-04T11:27:09.387Z,99089.00
2023-03-04T11:32:20.200Z,99079.34
2023-03-04T11:37:31.424Z,99093.00
2023-03-04T11:42:41.802Z,99071.94
2023-03-04T11:47:58.422Z,99064.94
2023-03-04T11:53:22.170Z,99062.88
2023-03-04T11:58:45.565Z,99051.97
2023-03-04T12:04:14.899Z,99050.59
2023-03-04T12:09:37.204Z,99039.13
2023-03-04T12:14:45.214Z,99034.97
2023-03-04T12:20:04.518Z,99029.84
2023-03-04T12:25:29.596Z,99024.84
2023-03-04T12:30:41.385Z,99023.19
2023-03-04T12:35:53.635Z,99018.53
2023-03-04T12:41:04.285Z,99010.78
2023-03-04T12:46:19.140Z,99008.41
2023-03-04T12:51:31.888Z,98997.72
2023-03-04T12:56:44.345Z,98996.03
2023-03-04T13:01:55.026Z,98985.13
2023-03-04T13:07:13.234Z,98982.25
2023-03-04T13:12:22.074Z,98980.66
2023-03-04T13:17:43.259Z,98975.91
2023-03-04T13:22:51.963Z,98971.88
2023-03-04T13:28:27.165Z,98971.03
2023-03-04T13:33:51.881Z,98969.69
2023-03-04T13:39:02.464Z,98967.81
2023-03-04T13:44:22.953Z,98960.53
2023-03-04T13:49:26.202Z,98957.28
2023-03-04T13:54:32.252Z,98951.34
2023-03-04T13:59:42.980Z,98956.09
2023-03-04T14:04:48.770Z,98953.94
2023-03-04T14:09:58.551Z,98952.66
2023-03-04T14:15:07.364Z,98951.94
2023-03-04T14:20:25.937Z,98947.84
2023-03-04T14:25:30.770Z,98934.72
2023-03-04T14:30:43.436Z,98929.06
2023-03-04T14:35:49.113Z,98926.09
2023-03-04T14:40:55.388Z,98921.75
2023-03-04T14:46:03.558Z,98922.78
2023-03-04T14:51:08.730Z,98910.53
2023-03-04T14:56:12.096Z,98911.84
2023-03-04T15:01:20.248Z,98900.53
2023-03-04T15:06:28.309Z,98896.16
2023-03-04T15:11:33.969Z,98903.16
2023-03-04T15:16:56.992Z,98897.63
2023-03-04T15:22:08.086Z,98893.88
2023-03-04T15:27:13.400Z,98889.72
2023-03-04T15:32:19.340Z,98878.03
2023-03-04T15:37:24.353Z,98881.78
2023-03-04T15:42:28.147Z,98881.28
2023-03-04T15:47:32.434Z,98877.72
2023-03-04T15:52:36.567Z,98873.63
2023-03-04T15:57:39.415Z,98870.22
2023-03-04T16:02:43.684Z,98870.31
2023-03-04T16:07:49.343Z,98879.44
2023-03-04T16:12:53.373Z,98884.25
2023-03-04T16:17:59.631Z,98878.34
2023-03-04T16:23:03.428Z,98881.09
2023-03-04T16:28:07.503Z,98884.50
2023-03-04T16:33:12.518Z,98882.97
2023-03-04T16:38:25.695Z,98880.41
2023-03-04T16:43:29.356Z,98883.31
2023-03-04T16:48:34.509Z,98873.00
2023-03-04T16:53:39.392Z,98870.28
2023-03-04T16:58:42.361Z,98866.09
2023-03-04T17:03:47.487Z,98856.75
2023-03-04T17:08:50.919Z,98865.44
2023-03-04T17:13:53.738Z,98862.03
2023-03-04T17:18:58.284Z,98861.34
2023-03-04T17:24:01.080Z,98858.63
2023-03-04T17:29:03.917Z,98861.25
2023-03-04T17:34:08.081Z,98865.78
2023-03-04T17:39:11.993Z,98864.16
2023-03-04T17:44:15.661Z,98863.47
2023-03-04T17:49:19.820Z,98862.78
2023-03-04T17:54:22.613Z,98864.69
2023-03-04T17:59:25.590Z,98866.44
2023-03-04T18:04:29.720Z,98872.78
2023-03-04T18:09:32.589Z,98871.31
2023-03-04T18:14:36.125Z,98867.91
2023-03-04T18:19:40.964Z,98869.78
2023-03-04T18:24:43.952Z,98870.63
2023-03-04T18:29:46.674Z,98868.91
2023-03-04T18:34:50.983Z,98867.91
2023-03-04T18:39:54.154Z,98873.19
2023-03-04T18:44:56.920Z,98870.72
2023-03-04T18:50:01.092Z,98867.22
2023-03-04T18:55:04.052Z,98875.13
2023-03-04T19:00:11.504Z,98872.59
2023-03-04T19:05:21.108Z,98869.09
2023-03-04T19:10:25.512Z,98866.53
2023-03-04T19:15:28.788Z,98870.03
2023-03-04T19:20:33.058Z,98865.00
2023-03-04T19:25:38.615Z,98863.31
2023-03-04T19:30:42.673Z,98872.47
2023-03-04T19:35:47.524Z,98867.03
2023-03-04T19:40:51.111Z,98868.06
2023-03-04T19:45:55.260Z,98863.78
2023-03-04T19:50:59.821Z,98863.13
2023-03-04T19:56:02.760Z,98870.28
2023-03-04T20:01:05.982Z,98867.63
2023-03-04T20:06:10.758Z,98866.09
2023-03-04T20:11:14.169Z,98865.22
2023-03-04T20:16:17.394Z,98864.47
2023-03-04T20:21:21.666Z,98861.13
2023-03-04T20:26:24.781Z,98863.88
2023-03-04T20:31:31.402Z,98865.03
2023-03-04T20:36:35.911Z,98866.84
2023-03-04T20:41:39.624Z,98874.75
2023-03-04T20:46:45.632Z,98873.81
2023-03-04T20:51:50.503Z,98868.63
2023-03-04T20:56:53.323Z,98866.91
2023-03-04T21:01:56.586Z,98864.19
2023-03-04T21:07:01.005Z,98862.50
2023-03-04T21:12:03.721Z,98851.19
2023-03-04T21:17:07.282Z,98853.06
2023-03-04T21:22:15.703Z,98849.53
2023-03-04T21:27:19.282Z,98845.19
2023-03-04T21:32:25.840Z,98850.47
2023-03-04T21:37:30.129Z,98844.34
2023-03-04T21:42:33.258Z,98844.44
2023-03-04T21:47:36.195Z,98840.94
2023-03-04T21:52:40.532Z,98843.66
2023-03-04T21:57:44.861Z,98849.88
2023-03-04T22:02:47.585Z,98848.06
2023-03-04T22:07:52.676Z,98842.81
2023-03-04T22:12:55.521Z,98843.06
2023-03-04T22:17:58.671Z,98843.06
2023-03-04T22:23:02.971Z,98842.19
2023-03-04T22:28:06.969Z,98848.41
2023-03-04T22:33:10.389Z,98835.50
2023-03-04T22:38:14.576Z,98838.91
2023-03-04T22:43:17.436Z,98836.50
2023-03-04T22:48:20.335Z,98837.31
2023-03-04T22:53:26.174Z,98829.50
2023-03-04T22:58:28.987Z,98846.28
2023-03-04T23:03:31.910Z,98835.88
2023-03-04T23:08:37.089Z,98836.81
2023-03-04T23:13:41.701Z,98835.78
2023-03-04T23:18:46.550Z,98835.88
2023-03-04T23:23:51.264Z,98827.97
2023-03-04T23:28:55.755Z,98828.97
2023-03-04T23:34:00.909Z,98825.66
2023-03-04T23:39:06.100Z,98826.50
2023-03-04T23:44:09.414Z,98813.31
2023-03-04T23:49:14.765Z,98816.91
2023-03-04T23:54:19.160Z,98800.41
2023-03-04T23:59:21.968Z,98800.53
